createdAt,value
2022-09-07T00:01:10.890Z,20.35
2022-09-07T00:03:38.422Z,20.34
2022-09-07T00:06:12.440Z,20.31
2022-09-07T00:08:43.531Z,20.23
2022-09-07T00:11:16.326Z,20.16
2022-09-07T00:13:47.313Z,20.08
2022-09-07T00:16:23.440Z,20.04
2022-09-07T00:18:54.374Z,19.96
2022-09-07T00:21:22.229Z,19.92
2022-09-07T00:23:50.455Z,19.85
2022-09-07T00:26:25.658Z,19.77
2022-09-07T00:29:02.009Z,19.68
2022-09-07T00:31:31.229Z,19.59
2022-09-07T00:34:02.173Z,19.49
2022-09-07T00:36:30.291Z,19.40
2022-09-07T00:38:58.452Z,19.29
2022-09-07T00:41:25.887Z,19.20
2022-09-07T00:43:57.399Z,19.15
2022-09-07T00:46:27.844Z,19.02
2022-09-07T00:49:14.898Z,18.94
2022-09-07T00:52:01.956Z,18.85
2022-09-07T00:54:40.328Z,18.77
2022-09-07T00:57:08.552Z,18.67
2022-09-07T00:59:45.073Z,18.60
2022-09-07T01:02:17.113Z,18.51
2022-09-07T01:04:51.117Z,18.43
2022-09-07T01:07:19.430Z,18.36
2022-09-07T01:09:47.505Z,18.30
2022-09-07T01:12:14.996Z,18.23
2022-09-07T01:14:50.471Z,18.18
2022-09-07T01:17:51.596Z,18.12
2022-09-07T01:20:50.716Z,18.06
2022-09-07T01:23:59.035Z,17.98
2022-09-07T01:27:23.163Z,17.91
2022-09-07T01:30:09.402Z,17.84
2022-09-07T01:33:12.093Z,17.80
2022-09-07T01:36:03.185Z,17.73
2022-09-07T01:38:56.054Z,17.67
2022-09-07T01:41:44.780Z,17.65
2022-09-07T01:44:24.381Z,17.63
2022-09-07T01:47:09.215Z,17.62
2022-09-07T01:49:45.526Z,17.60
2022-09-07T01:52:36.155Z,17.58
2022-09-07T01:55:16.713Z,17.55
2022-09-07T01:58:13.621Z,17.51
2022-09-07T02:00:49.252Z,17.47
2022-09-07T02:03:29.158Z,17.43
2022-09-07T02:06:18.539Z,17.39
2022-09-07T02:09:01.035Z,17.36
2022-09-07T02:11:43.826Z,17.33
2022-09-07T02:14:30.217Z,17.32
2022-09-07T02:17:10.838Z,17.30
2022-09-07T02:19:50.051Z,17.26
2022-09-07T02:22:27.171Z,17.26
2022-09-07T02:25:00.862Z,17.26
2022-09-07T02:27:50.727Z,17.27
2022-09-07T02:30:18.321Z,17.28
2022-09-07T02:32:45.903Z,17.30
2022-09-07T02:35:13.542Z,17.34
2022-09-07T02:37:44.338Z,17.38
2022-09-07T02:40:12.975Z,17.40
2022-09-07T02:42:43.226Z,17.45
2022-09-07T02:45:13.676Z,17.48
2022-09-07T02:47:58.334Z,17.52
2022-09-07T02:50:58.642Z,17.57
2022-09-07T02:53:56.442Z,17.58
2022-09-07T02:57:00.869Z,17.61
2022-09-07T02:59:37.360Z,17.63
2022-09-07T03:02:19.733Z,17.65
2022-09-07T03:05:03.157Z,17.68
2022-09-07T03:07:41.007Z,17.68
2022-09-07T03:10:14.612Z,17.68
2022-09-07T03:12:49.532Z,17.72
2022-09-07T03:15:25.133Z,17.73
2022-09-07T03:17:53.711Z,17.73
2022-09-07T03:20:22.804Z,17.75
2022-09-07T03:22:52.663Z,17.77
2022-09-07T03:25:20.153Z,17.79
2022-09-07T03:27:47.582Z,17.81
2022-09-07T03:30:15.113Z,17.85
2022-09-07T03:32:42.549Z,17.84
2022-09-07T03:35:10.836Z,17.86
2022-09-07T03:37:38.780Z,17.80
2022-09-07T03:40:10.162Z,17.76
2022-09-07T03:42:38.276Z,17.73
2022-09-07T03:45:08.049Z,17.75
2022-09-07T03:47:39.609Z,17.78
2022-09-07T03:50:07.435Z,17.78
2022-09-07T03:52:35.536Z,17.78
2022-09-07T03:55:04.217Z,17.83
2022-09-07T03:57:31.791Z,17.86
2022-09-07T03:59:59.224Z,17.88
2022-09-07T04:02:26.663Z,17.92
2022-09-07T04:04:54.160Z,17.94
2022-09-07T04:07:21.789Z,17.95
2022-09-07T04:09:51.235Z,17.95
2022-09-07T04:12:19.728Z,17.95
2022-09-07T04:14:47.159Z,17.95
2022-09-07T04:17:14.657Z,17.95
2022-09-07T04:19:42.209Z,17.95
2022-09-07T04:22:10.639Z,17.93
2022-09-07T04:24:38.215Z,17.93
2022-09-07T04:27:05.666Z,17.92
2022-09-07T04:29:33.094Z,17.90
2022-09-07T04:32:00.540Z,17.90
2022-09-07T04:34:28.148Z,17.87
2022-09-07T04:36:55.547Z,17.85
2022-09-07T04:39:23.032Z,17.85
2022-09-07T04:41:50.454Z,17.85
2022-09-07T04:44:17.887Z,17.87
2022-09-07T04:46:45.391Z,17.88
2022-09-07T04:49:13.978Z,17.89
2022-09-07T04:51:44.383Z,17.89
2022-09-07T04:54:12.202Z,17.91
2022-09-07T04:56:39.676Z,17.89
2022-09-07T04:59:07.195Z,17.89
2022-09-07T05:01:34.687Z,17.89
2022-09-07T05:04:04.376Z,17.89
2022-09-07T05:06:32.646Z,17.89
2022-09-07T05:09:00.553Z,17.89
2022-09-07T05:11:29.923Z,17.88
2022-09-07T05:14:03.223Z,17.87
2022-09-07T05:16:31.737Z,17.87
2022-09-07T05:19:02.487Z,17.89
2022-09-07T05:21:33.638Z,17.88
2022-09-07T05:24:02.493Z,17.88
2022-09-07T05:26:33.934Z,17.89
2022-09-07T05:31:54.843Z,17.88
2022-09-07T05:34:30.592Z,17.89
2022-09-07T05:36:58.846Z,17.89
2022-09-07T05:39:27.376Z,17.91
2022-09-07T05:42:40.529Z,17.92
2022-09-07T05:45:11.471Z,17.89
2022-09-07T05:47:39.312Z,17.91
2022-09-07T05:50:09.083Z,17.93
2022-09-07T05:52:36.687Z,17.94
2022-09-07T05:55:26.229Z,17.95
2022-09-07T05:57:51.974Z,17.96
2022-09-07T06:00:21.554Z,17.96
2022-09-07T06:02:49.127Z,17.97
2022-09-07T06:05:17.589Z,18.02
2022-09-07T06:07:48.253Z,18.05
2022-09-07T06:13:04.729Z,18.10
2022-09-07T06:15:33.798Z,18.12
2022-09-07T06:18:01.403Z,18.13
2022-09-07T06:20:28.931Z,18.16
2022-09-07T06:22:56.339Z,18.19
2022-09-07T06:25:23.814Z,18.23
2022-09-07T06:27:51.973Z,18.23
2022-09-07T06:30:20.929Z,18.24
2022-09-07T06:32:48.444Z,18.24
2022-09-07T06:35:16.125Z,18.23
2022-09-07T06:37:44.150Z,18.25
2022-09-07T06:40:12.193Z,18.25
2022-09-07T06:42:40.021Z,18.27
2022-09-07T06:45:11.225Z,18.27
2022-09-07T06:47:39.260Z,18.32
2022-09-07T06:50:07.584Z,18.34
2022-09-07T06:55:27.903Z,18.53
2022-09-07T06:57:55.313Z,18.65
2022-09-07T07:00:22.769Z,18.76
2022-09-07T07:02:50.267Z,18.82
2022-09-07T07:05:17.765Z,18.84
2022-09-07T07:07:45.278Z,18.85
2022-09-07T07:10:12.944Z,18.86
2022-09-07T07:15:08.842Z,18.83
2022-09-07T07:17:36.258Z,18.86
2022-09-07T07:20:03.965Z,18.99
2022-09-07T07:22:47.237Z,19.09
2022-09-07T07:25:15.263Z,19.19
2022-09-07T07:27:45.952Z,19.23
2022-09-07T07:30:16.702Z,19.24
2022-09-07T07:32:46.227Z,19.25
2022-09-07T07:35:14.495Z,19.26
2022-09-07T07:37:42.114Z,19.28
2022-09-07T07:42:42.821Z,19.46
2022-09-07T07:47:59.057Z,19.90
2022-09-07T07:50:31.571Z,20.06
2022-09-07T07:55:50.634Z,20.21
2022-09-07T07:58:18.575Z,20.33
2022-09-07T08:00:55.905Z,20.36
2022-09-07T08:03:25.366Z,20.35
2022-09-07T08:05:55.261Z,20.38
2022-09-07T08:08:23.724Z,20.43
2022-09-07T08:10:51.288Z,20.50
2022-09-07T08:13:19.220Z,20.57
2022-09-07T08:15:47.001Z,20.65
2022-09-07T08:18:17.150Z,20.70
2022-09-07T08:20:44.968Z,20.82
2022-09-07T08:23:12.489Z,20.88
2022-09-07T08:25:50.877Z,21.01
2022-09-07T08:28:19.829Z,21.12
2022-09-07T08:30:48.047Z,21.24
2022-09-07T08:33:15.704Z,21.32
2022-09-07T08:35:43.265Z,21.40
2022-09-07T08:38:10.846Z,21.52
2022-09-07T08:40:38.845Z,21.66
2022-09-07T08:43:26.967Z,21.81
2022-09-07T08:46:04.932Z,21.94
2022-09-07T08:48:35.822Z,22.00
2022-09-07T08:51:20.037Z,22.00
2022-09-07T08:53:50.539Z,22.06
2022-09-07T08:56:33.677Z,22.02
2022-09-07T08:59:18.775Z,21.98
2022-09-07T09:02:27.112Z,21.86
2022-09-07T09:05:16.098Z,21.76
2022-09-07T09:07:35.974Z,21.72
2022-09-07T09:10:27.338Z,21.75
2022-09-07T09:13:18.450Z,21.75
2022-09-07T09:16:02.444Z,21.82
2022-09-07T09:18:42.043Z,21.86
2022-09-07T09:21:16.585Z,21.93
2022-09-07T09:23:51.107Z,21.97
2022-09-07T09:26:25.393Z,22.02
2022-09-07T09:28:52.943Z,22.11
2022-09-07T09:31:26.478Z,22.26
2022-09-07T09:34:17.639Z,22.45
2022-09-07T09:36:49.725Z,22.61
2022-09-07T09:39:37.185Z,22.76
2022-09-07T09:42:11.649Z,22.86
2022-09-07T09:44:40.642Z,22.91
2022-09-07T09:47:30.368Z,23.02
2022-09-07T09:52:29.222Z,23.13
2022-09-07T09:53:06.723Z,23.22
2022-09-07T09:55:37.955Z,23.29
2022-09-07T10:01:30.975Z,23.53
2022-09-07T10:04:24.724Z,23.64
2022-09-07T10:07:09.001Z,23.72
2022-09-07T10:09:41.249Z,23.81
2022-09-07T10:12:24.781Z,23.91
2022-09-07T10:14:53.650Z,24.01
2022-09-07T10:17:35.692Z,24.09
2022-09-07T10:20:18.598Z,24.15
2022-09-07T10:22:58.682Z,24.22
2022-09-07T10:25:41.500Z,24.35
2022-09-07T10:28:10.026Z,24.43
2022-09-07T10:31:30.117Z,24.55
2022-09-07T10:34:29.472Z,24.68
2022-09-07T10:37:09.522Z,24.75
2022-09-07T10:40:00.302Z,24.80
2022-09-07T10:42:35.597Z,24.85
2022-09-07T10:45:24.688Z,24.87
2022-09-07T10:48:23.622Z,24.81
2022-09-07T10:51:05.130Z,24.72
2022-09-07T10:57:34.947Z,24.81
2022-09-07T11:00:16.433Z,24.76
2022-09-07T11:03:28.305Z,24.76
2022-09-07T11:06:09.061Z,24.79
2022-09-07T11:09:19.644Z,24.78
2022-09-07T11:12:05.595Z,24.76
2022-09-07T11:14:45.110Z,24.75
2022-09-07T11:17:50.616Z,24.77
2022-09-07T11:20:54.934Z,24.89
2022-09-07T11:23:42.074Z,25.10
2022-09-07T11:26:29.583Z,25.26
2022-09-07T11:32:26.330Z,25.49
2022-09-07T11:35:03.850Z,25.50
2022-09-07T11:37:47.047Z,25.48
2022-09-07T11:40:58.546Z,25.48
2022-09-07T11:43:35.100Z,25.53
2022-09-07T11:46:13.164Z,25.52
2022-09-07T11:48:52.415Z,25.62
2022-09-07T11:51:35.848Z,25.73
2022-09-07T11:54:39.230Z,25.89
2022-09-07T11:57:15.888Z,25.94
2022-09-07T12:00:01.665Z,25.93
2022-09-07T12:03:49.812Z,25.89
2022-09-07T12:06:32.095Z,25.91
2022-09-07T12:09:45.493Z,25.87
2022-09-07T12:12:43.575Z,25.77
2022-09-07T12:15:44.416Z,25.70
2022-09-07T12:19:01.149Z,25.62
2022-09-07T12:21:43.522Z,25.65
2022-09-07T12:24:35.560Z,25.81
2022-09-07T12:27:08.704Z,25.87
2022-09-07T12:29:36.822Z,25.97
2022-09-07T12:32:53.462Z,26.05
2022-09-07T12:34:55.703Z,26.13
2022-09-07T12:37:40.096Z,26.26
2022-09-07T12:40:36.138Z,26.41
2022-09-07T12:43:12.642Z,26.61
2022-09-07T12:45:48.420Z,26.74
2022-09-07T12:48:15.799Z,26.82
2022-09-07T12:51:09.565Z,26.95
2022-09-07T12:54:09.732Z,27.05
2022-09-07T12:57:28.970Z,27.03
2022-09-07T12:59:53.329Z,27.07
2022-09-07T13:03:49.456Z,27.15
2022-09-07T13:06:16.074Z,27.12
2022-09-07T13:09:17.282Z,27.00
2022-09-07T13:11:45.779Z,26.93
2022-09-07T13:14:13.411Z,26.97
2022-09-07T13:19:55.127Z,27.31
2022-09-07T13:22:35.213Z,27.42
2022-09-07T13:25:26.215Z,27.37
2022-09-07T13:28:23.603Z,27.45
2022-09-07T13:31:48.550Z,27.52
2022-09-07T13:34:34.114Z,27.59
2022-09-07T13:37:06.054Z,27.66
2022-09-07T13:39:45.733Z,27.74
2022-09-07T13:42:22.072Z,27.80
2022-09-07T13:45:00.262Z,27.88
2022-09-07T13:47:59.347Z,27.98
2022-09-07T13:50:43.368Z,28.07
2022-09-07T13:53:32.902Z,28.17
2022-09-07T13:56:24.325Z,28.19
2022-09-07T13:58:53.311Z,27.99
2022-09-07T14:01:28.963Z,27.91
2022-09-07T14:04:07.533Z,27.82
2022-09-07T14:06:37.822Z,27.78
2022-09-07T14:09:14.782Z,27.68
2022-09-07T14:11:49.094Z,27.59
2022-09-07T14:14:26.463Z,27.59
2022-09-07T14:17:01.692Z,27.60
2022-09-07T14:19:45.287Z,27.57
2022-09-07T14:22:16.505Z,27.54
2022-09-07T14:24:51.395Z,27.52
2022-09-07T14:27:36.647Z,27.47
2022-09-07T14:30:33.296Z,27.52
2022-09-07T14:33:06.307Z,27.57
2022-09-07T14:35:38.352Z,27.63
2022-09-07T14:41:15.302Z,27.66
2022-09-07T14:43:56.533Z,27.68
2022-09-07T14:46:29.335Z,27.67
2022-09-07T14:49:01.549Z,27.69
2022-09-07T14:51:36.217Z,27.70
2022-09-07T14:54:08.037Z,27.71
2022-09-07T14:56:41.587Z,27.74
2022-09-07T14:59:44.444Z,27.83
2022-09-07T15:02:29.856Z,27.87
2022-09-07T15:05:25.938Z,27.86
2022-09-07T15:08:02.710Z,27.79
2022-09-07T15:10:41.344Z,27.66
2022-09-07T15:13:32.998Z,27.50
2022-09-07T15:16:05.525Z,27.40
2022-09-07T15:19:16.531Z,27.37
2022-09-07T15:21:45.438Z,27.33
2022-09-07T15:24:12.835Z,27.26
2022-09-07T15:27:02.915Z,27.22
2022-09-07T15:29:31.595Z,27.17
2022-09-07T15:32:05.114Z,27.11
2022-09-07T15:34:35.291Z,27.05
2022-09-07T15:38:00.305Z,27.02
2022-09-07T15:39:52.860Z,27.04
2022-09-07T15:45:08.956Z,27.05
2022-09-07T15:47:50.625Z,27.00
2022-09-07T15:50:19.494Z,26.95
2022-09-07T15:52:47.057Z,26.97
2022-09-07T15:55:17.096Z,26.97
2022-09-07T15:57:50.128Z,27.00
2022-09-07T16:00:20.768Z,27.07
2022-09-07T16:03:06.069Z,27.13
2022-09-07T16:05:34.487Z,27.13
2022-09-07T16:10:53.919Z,27.17
2022-09-07T16:13:24.020Z,27.20
2022-09-07T16:15:52.102Z,27.20
2022-09-07T16:18:19.599Z,27.18
2022-09-07T16:20:47.283Z,27.15
2022-09-07T16:23:17.064Z,27.03
2022-09-07T16:26:00.941Z,26.89
2022-09-07T16:28:29.433Z,26.76
2022-09-07T16:30:57.160Z,26.69
2022-09-07T16:33:34.379Z,26.66
2022-09-07T16:36:13.213Z,26.65
2022-09-07T16:38:44.442Z,26.64
2022-09-07T16:41:29.008Z,26.60
2022-09-07T16:43:57.354Z,26.50
2022-09-07T16:46:28.345Z,26.43
2022-09-07T16:48:55.826Z,26.35
2022-09-07T16:51:24.879Z,26.27
2022-09-07T16:53:55.813Z,26.20
2022-09-07T16:56:27.041Z,26.13
2022-09-07T16:58:58.909Z,26.12
2022-09-07T17:01:31.269Z,26.09
2022-09-07T17:04:00.330Z,26.00
2022-09-07T17:06:30.125Z,25.94
2022-09-07T17:09:01.277Z,25.86
2022-09-07T17:11:34.127Z,25.77
2022-09-07T17:14:02.197Z,25.75
2022-09-07T17:16:33.617Z,25.77
2022-09-07T17:21:53.637Z,25.59
2022-09-07T17:24:21.463Z,25.50
2022-09-07T17:26:48.827Z,25.43
2022-09-07T17:29:16.696Z,25.36
2022-09-07T17:34:33.606Z,25.16
2022-09-07T17:37:01.374Z,25.07
2022-09-07T17:39:29.513Z,25.00
2022-09-07T17:41:57.065Z,24.91
2022-09-07T17:44:24.526Z,24.83
2022-09-07T17:46:51.947Z,24.75
2022-09-07T17:49:19.377Z,24.66
2022-09-07T17:51:46.864Z,24.56
2022-09-07T17:54:17.439Z,24.47
2022-09-07T17:56:46.253Z,24.37
2022-09-07T18:02:01.406Z,24.15
2022-09-07T18:04:28.984Z,24.05
2022-09-07T18:06:56.423Z,23.91
2022-09-07T18:09:24.032Z,23.80
2022-09-07T18:11:51.529Z,23.69
2022-09-07T18:14:19.396Z,23.60
2022-09-07T18:16:49.838Z,23.49
2022-09-07T18:19:18.893Z,23.40
2022-09-07T18:21:47.907Z,23.31
2022-09-07T18:24:22.863Z,23.22
2022-09-07T18:26:53.729Z,23.13
2022-09-07T18:29:29.944Z,23.04
2022-09-07T18:32:00.594Z,22.97
2022-09-07T18:34:31.902Z,22.92
2022-09-07T18:37:00.807Z,22.86
2022-09-07T18:39:28.559Z,22.80
2022-09-07T18:41:56.562Z,22.74
2022-09-07T18:47:22.339Z,22.57
2022-09-07T18:49:51.541Z,22.47
2022-09-07T18:55:09.833Z,22.28
2022-09-07T18:57:39.315Z,22.20
2022-09-07T19:00:09.563Z,22.13
2022-09-07T19:02:37.273Z,22.07
2022-09-07T19:07:52.979Z,21.90
2022-09-07T19:10:20.529Z,21.83
2022-09-07T19:12:47.915Z,21.78
2022-09-07T19:15:15.612Z,21.72
2022-09-07T19:17:43.029Z,21.65
2022-09-07T19:20:10.582Z,21.61
2022-09-07T19:22:38.932Z,21.55
2022-09-07T19:25:06.675Z,21.50
2022-09-07T19:27:34.614Z,21.44
2022-09-07T19:30:03.470Z,21.39
2022-09-07T19:32:30.833Z,21.31
2022-09-07T19:34:58.208Z,21.24
2022-09-07T19:37:26.151Z,21.17
2022-09-07T19:39:55.061Z,21.11
2022-09-07T19:42:24.407Z,21.05
2022-09-07T19:44:54.097Z,21.00
2022-09-07T19:47:21.911Z,20.94
2022-09-07T19:49:49.324Z,20.88
2022-09-07T19:52:16.672Z,20.84
2022-09-07T19:54:44.123Z,20.79
2022-09-07T19:57:12.221Z,20.73
2022-09-07T19:59:39.589Z,20.69
2022-09-07T20:02:07.123Z,20.63
2022-09-07T20:04:35.729Z,20.58
2022-09-07T20:07:03.971Z,20.52
2022-09-07T20:09:31.352Z,20.46
2022-09-07T20:12:01.719Z,20.40
2022-09-07T20:14:29.393Z,20.34
2022-09-07T20:16:57.116Z,20.30
2022-09-07T20:19:24.634Z,20.23
2022-09-07T20:21:55.632Z,20.19
2022-09-07T20:24:23.361Z,20.11
2022-09-07T20:26:51.257Z,20.05
2022-09-07T20:29:34.061Z,20.00
2022-09-07T20:32:01.857Z,19.96
2022-09-07T20:34:29.857Z,19.94
2022-09-07T20:36:57.407Z,19.93
2022-09-07T20:39:24.987Z,19.91
2022-09-07T20:41:52.652Z,19.90
2022-09-07T20:44:20.099Z,19.89
2022-09-07T20:46:47.589Z,19.87
2022-09-07T20:49:15.113Z,19.84
2022-09-07T20:51:42.513Z,19.82
2022-09-07T20:54:10.163Z,19.79
2022-09-07T20:56:37.690Z,19.72
2022-09-07T20:59:05.258Z,19.67
2022-09-07T21:01:34.909Z,19.66
2022-09-07T21:04:03.093Z,19.63
2022-09-07T21:06:32.777Z,19.62
2022-09-07T21:09:00.274Z,19.60
2022-09-07T21:11:34.345Z,19.61
2022-09-07T21:14:11.067Z,19.60
2022-09-07T21:16:39.212Z,19.59
2022-09-07T21:19:09.060Z,19.58
2022-09-07T21:21:42.654Z,19.55
2022-09-07T21:24:23.065Z,19.50
2022-09-07T21:26:51.796Z,19.47
2022-09-07T21:29:23.601Z,19.43
2022-09-07T21:31:53.597Z,19.39
2022-09-07T21:34:22.197Z,19.38
2022-09-07T21:36:49.898Z,19.35
2022-09-07T21:39:17.672Z,19.29
2022-09-07T21:41:45.518Z,19.26
2022-09-07T21:44:15.498Z,19.22
2022-09-07T21:46:44.145Z,19.19
2022-09-07T21:49:12.185Z,19.18
2022-09-07T21:51:39.821Z,19.16
2022-09-07T21:54:07.433Z,19.13
2022-09-07T21:56:34.850Z,19.10
2022-09-07T21:59:02.594Z,19.06
2022-09-07T22:01:31.689Z,19.03
2022-09-07T22:04:03.354Z,19.02
2022-09-07T22:06:32.366Z,18.96
2022-09-07T22:09:01.386Z,18.97
2022-09-07T22:11:29.933Z,18.98
2022-09-07T22:14:02.655Z,18.98
2022-09-07T22:16:32.736Z,18.95
2022-09-07T22:19:00.735Z,18.93
2022-09-07T22:21:30.124Z,18.84
2022-09-07T22:24:02.132Z,18.73
2022-09-07T22:26:33.937Z,18.61
2022-09-07T22:29:01.475Z,18.56
2022-09-07T22:31:32.910Z,18.56
2022-09-07T22:34:01.993Z,18.55
2022-09-07T22:36:36.108Z,18.55
2022-09-07T22:39:13.900Z,18.55
2022-09-07T22:41:43.294Z,18.58
2022-09-07T22:44:15.246Z,18.60
2022-09-07T22:46:44.908Z,18.62
2022-09-07T22:49:15.846Z,18.65
2022-09-07T22:51:44.423Z,18.68
2022-09-07T22:54:11.874Z,18.72
2022-09-07T22:56:39.891Z,18.77
2022-09-07T22:59:09.626Z,18.80
2022-09-07T23:01:37.604Z,18.84
2022-09-07T23:06:38.494Z,18.88
2022-09-07T23:09:10.509Z,18.90
2022-09-07T23:11:38.609Z,18.91
2022-09-07T23:14:13.104Z,18.94
2022-09-07T23:16:41.036Z,18.93
2022-09-07T23:19:12.650Z,18.92
2022-09-07T23:21:40.734Z,18.87
2022-09-07T23:24:13.412Z,18.83
2022-09-07T23:26:41.215Z,18.77
2022-09-07T23:29:12.914Z,18.72
2022-09-07T23:31:40.920Z,18.67
2022-09-07T23:34:09.527Z,18.64
2022-09-07T23:36:37.100Z,18.63
2022-09-07T23:39:05.009Z,18.63
2022-09-07T23:41:32.722Z,18.61
2022-09-07T23:44:00.457Z,18.61
2022-09-07T23:46:27.982Z,18.58
2022-09-07T23:48:55.440Z,18.57
2022-09-07T23:51:24.426Z,18.55
2022-09-07T23:53:53.301Z,18.48
2022-09-07T23:56:24.264Z,18.41
2022-09-07T23:58:52.187Z,18.29
